Main page
METAR-TAF:

METAR-TAF

Airports :

Gwadar International Airport

Gwadar, Pakistan

latitude: 25-13-59N, longitude: 062-19-46E, elevation: 29 m

METAR: missing

Time: 02:36 (21:36 UTC)

Forecast

The report was made 12 hours and 6 minutes ago, at 09:30 UTC
Forecast valid from 28 at 12 UTC to 29 at 12 UTC
Wind 7 kt from the West/Southwest
Visibility: 4000 m
haze
Becoming
from 28 at 19 UTC to 28 at 21 UTC
Wind 3 kt from variable directions
Visibility: 3000 m
smoke
Temporary
from 29 at 00 UTC to 29 at 04 UTC
Wind kt from the North
Visibility: 1500 m
Scattered clouds at a height of 2000 ft
mist
From 29 at 0600 UTC
Wind 10 kt from the West/Southwest
Visibility: 5000 m
haze

TAF: OPGD 280930Z 2812/2912 24007KT 4000 HZ NSC BECMG 2819/2821 VRB03KT 3000 FU NSC TEMPO 2900/2904 00000KT 1500 BR SCT020 FM290600 25010KT 5000 HZ NSC

Weather observations and forecasts of more than 4000 airports (METAR and TAF reports).

The available stations are represented by yellow and red dots on the map.

Hover mouse over dot to see the name of the station.

Then click to see weather observations and forecasts.

To change the map : click on the green buttons with a black cross to zoom in, on the green button with a dash to zoom out, or on the green arrows for adjacent maps.


METAR-TAF: